Elliot Lake Municipal Airport


Codes: CYEL/YEL
Name: Elliot Lake Municipal Airport
City: Elliot Lake
Country: Canada
Elevation: 1087 ft.
Website:
Wikipedia:

Photos at Elliot Lake Municipal Airport


   Photos courtesy of SpottingLog. You can add your own sightings and photos by signing up for a free trial today.



No photos found.

Weather at Elliot Lake Municipal Airport


Time (UTC)DescriptionTempratureWindCloud coverageVisibilityPressureHumidity
15-Apr-2024 15:00Clear Sky10°C11 mph, NW10%10000m1012hPa50%
15-Apr-2024 18:00Scattered Clouds10°C9 mph, NW26%10000m1012hPa48%
15-Apr-2024 21:00Broken Clouds12°C11 mph, NW70%10000m1013hPa42%
16-Apr-2024 00:00Broken Clouds8°C4 mph, NW72%10000m1016hPa59%
16-Apr-2024 03:00Clear Sky3°C7 mph, NW1%10000m1019hPa75%
16-Apr-2024 06:00Clear Sky1°C4 mph, N0%10000m1021hPa80%
16-Apr-2024 09:00Clear Sky-1°C4 mph, N2%10000m1023hPa84%
16-Apr-2024 12:00Clear Sky1°C7 mph, N4%10000m1024hPa73%
16-Apr-2024 15:00Clear Sky8°C4 mph, N9%10000m1024hPa43%
16-Apr-2024 18:00Few Clouds13°C2 mph, E16%10000m1023hPa33%
16-Apr-2024 21:00Broken Clouds11°C4 mph, E81%10000m1022hPa41%
17-Apr-2024 00:00Overcast Clouds6°C7 mph, E90%10000m1023hPa63%
17-Apr-2024 03:00Overcast Clouds6°C11 mph, E100%10000m1023hPa62%
17-Apr-2024 06:00Overcast Clouds2°C11 mph, E100%10000m1023hPa71%
17-Apr-2024 09:00Overcast Clouds1°C11 mph, E100%10000m1021hPa74%
17-Apr-2024 12:00Overcast Clouds2°C11 mph, E100%10000m1019hPa71%
17-Apr-2024 15:00Light Rain4°C16 mph, E100%10000m1017hPa67%
17-Apr-2024 18:00Light Rain5°C16 mph, E100%10000m1014hPa78%
17-Apr-2024 21:00Light Rain6°C16 mph, E100%10000m1010hPa81%
18-Apr-2024 00:00Light Rain6°C16 mph, E100%10000m1007hPa84%
18-Apr-2024 03:00Moderate Rain6°C16 mph, N100%0m1004hPa93%
18-Apr-2024 06:00Moderate Rain6°C13 mph, SE100%1840m1003hPa97%
18-Apr-2024 09:00Light Rain5°C7 mph, SE100%107m1002hPa98%
18-Apr-2024 12:00Light Rain6°C9 mph, SW100%7318m1002hPa97%
18-Apr-2024 15:00Light Rain4°C13 mph, W100%10000m1007hPa92%
18-Apr-2024 18:00Overcast Clouds5°C11 mph, W100%10000m1009hPa81%
18-Apr-2024 21:00Overcast Clouds6°C9 mph, W100%10000m1011hPa80%
19-Apr-2024 00:00Overcast Clouds5°C9 mph, W100%10000m1013hPa78%
19-Apr-2024 03:00Overcast Clouds3°C4 mph, SW91%10000m1013hPa88%
19-Apr-2024 06:00Overcast Clouds3°C2 mph, W96%10000m1012hPa90%
19-Apr-2024 09:00Light Rain2°C4 mph, N100%0m1011hPa98%
19-Apr-2024 12:00Overcast Clouds2°C4 mph, W100%10000m1011hPa87%
19-Apr-2024 15:00Broken Clouds3°C9 mph, W83%4634m1010hPa74%
19-Apr-2024 18:00Light Snow5°C9 mph, W89%643m1009hPa71%
19-Apr-2024 21:00Snow2°C11 mph, N100%0m1009hPa89%
20-Apr-2024 00:00Light Snow-0°C9 mph, W99%10000m1010hPa66%
20-Apr-2024 03:00Broken Clouds-2°C7 mph, W66%10000m1011hPa80%
20-Apr-2024 06:00Broken Clouds-2°C9 mph, W61%10000m1011hPa85%
20-Apr-2024 09:00Broken Clouds-0°C9 mph, W67%10000m1011hPa77%
20-Apr-2024 12:00Broken Clouds-0°C7 mph, NW65%10000m1013hPa79%